Wind From: 11-12-2017 07:30 Until: 12-12-2017 06:00 warning for: Wind Level: Orange info button

Power and phone distribution networks may be disrupted for relatively long periods., Roofs and chimneys can be damaged. , Tree branches may break. , Vehicles can be deported. , Traffic may be disrupted, particularly on secondary roads in forest areas. Limit your trips. , Limit your speed in highway driving, especially if you drive a vehicle or hitch sensitive to wind. , Do not go for walks in forests or along the coast., In town, be vigilant against possible falling objects., Do not work on roofs and do not touch any electrical line fallen on the ground., Store or secure sensitive objects to wind or likely to be damaged., Always install power generators outside buildings. 


Meteo18 Weather Cam more information Meteo18 Weather Cam


Thunder radar more information blitzortung!


Rain radar more information rain snow radar


Visit our other weather sites:

Template documentation
and downloads

And another site



Weather Underground History page Text

Daily Summary for March 21, 2017 Units:  Both    English   Metric
« Previous Day
Next Day »
Daily Weekly Monthly Yearly Custom
  High: Low: Average:
Temperature: 49.5 °F /  9.7 °C 38.5 °F /  3.6 °C 45.7 °F /  7.6 °C
Dew Point: 47.3 °F /  8.5 °C 37.2 °F /  2.9 °C 43.2 °F /  6.2 °C
Humidity: 97 % 80 % 91 %
Wind Speed: 12 mph /  19.3 km/h - 3.9 mph /  6.3 km/h
Wind Gust: 18 mph /  29.0 km/h - -
Wind:- - WSW
Pressure: 30 in /  1016.5 hPa 29.9 in /  1013.4 hPa -
Precipitation: 0.25 in /  6.3 mm    
Historical Graphs
 
 
Tabular Data for March 21, 2017
Time Temperature Dew Point Pressure Wind Wind Speed Wind Gust Humidity Rainfall Rate (Hourly)
00:02 49.5 °F /  9.7 °C 43.5 °F /  6.4 °C 30 in /  1015.1 hPa WSW 5 mph /  8.0 km/h 11 mph /  17.7 km/h 80 % 0 in /  0.0 mm
00:12 49.5 °F /  9.7 °C 43.5 °F /  6.4 °C 30 in /  1015.1 hPa SW 9 mph /  14.5 km/h 11 mph /  17.7 km/h 80 % 0 in /  0.0 mm
00:17 49.5 °F /  9.7 °C 43.5 °F /  6.4 °C 30 in /  1015.1 hPa WSW 5 mph /  8.0 km/h 11 mph /  17.7 km/h 80 % 0 in /  0.0 mm
00:22 49.3 °F /  9.6 °C 43.3 °F /  6.3 °C 30 in /  1015.1 hPa SW 6 mph /  9.7 km/h 10 mph /  16.1 km/h 80 % 0 in /  0.0 mm
00:32 49.3 °F /  9.6 °C 43.3 °F /  6.3 °C 30 in /  1015.1 hPa WNW 4 mph /  6.4 km/h 9 mph /  14.5 km/h 80 % 0 in /  0.0 mm
00:37 49.3 °F /  9.6 °C 43.3 °F /  6.3 °C 30 in /  1015.1 hPa WSW 6 mph /  9.7 km/h 9 mph /  14.5 km/h 80 % 0 in /  0.0 mm
00:42 49.3 °F /  9.6 °C 43.3 °F /  6.3 °C 30 in /  1014.8 hPa WSW 6 mph /  9.7 km/h 10 mph /  16.1 km/h 80 % 0 in /  0.0 mm
00:47 49.3 °F /  9.6 °C 43.7 °F /  6.5 °C 30 in /  1014.8 hPa WSW 4 mph /  6.4 km/h 9 mph /  14.5 km/h 81 % 0 in /  0.0 mm
00:52 49.3 °F /  9.6 °C 43.7 °F /  6.5 °C 30 in /  1014.8 hPa SW 3 mph /  4.8 km/h 9 mph /  14.5 km/h 81 % 0 in /  0.0 mm
00:57 49.3 °F /  9.6 °C 43.7 °F /  6.5 °C 30 in /  1014.8 hPa SW 8 mph /  12.9 km/h 11 mph /  17.7 km/h 81 % 0 in /  0.0 mm
01:02 49.3 °F /  9.6 °C 43.7 °F /  6.5 °C 30 in /  1014.8 hPa WSW 12 mph /  19.3 km/h 12 mph /  19.3 km/h 81 % 0 in /  0.0 mm
01:12 49.3 °F /  9.6 °C 43.7 °F /  6.5 °C 30 in /  1014.8 hPa SW 9 mph /  14.5 km/h 12 mph /  19.3 km/h 81 % 0 in /  0.0 mm
01:17 49.3 °F /  9.6 °C 44.1 °F /  6.7 °C 30 in /  1014.8 hPa WSW 4 mph /  6.4 km/h 14 mph /  22.5 km/h 82 % 0 in /  0.0 mm
01:22 49.1 °F /  9.5 °C 43.9 °F /  6.6 °C 30 in /  1014.8 hPa West 8 mph /  12.9 km/h 14 mph /  22.5 km/h 82 % 0 in /  0.0 mm
01:27 49.1 °F /  9.5 °C 43.9 °F /  6.6 °C 30 in /  1014.8 hPa SW 5 mph /  8.0 km/h 14 mph /  22.5 km/h 82 % 0 in /  0.0 mm
01:32 49.1 °F /  9.5 °C 43.9 °F /  6.6 °C 30 in /  1014.8 hPa WSW 8 mph /  12.9 km/h 14 mph /  22.5 km/h 82 % 0 in /  0.0 mm
01:42 49.1 °F /  9.5 °C 43.9 °F /  6.6 °C 30 in /  1014.8 hPa WSW 7 mph /  11.3 km/h 18 mph /  29.0 km/h 82 % 0 in /  0.0 mm
01:52 48.9 °F /  9.4 °C 44.1 °F /  6.7 °C 30 in /  1014.8 hPa SW 7 mph /  11.3 km/h 14 mph /  22.5 km/h 83 % 0 in /  0.0 mm
01:57 48.9 °F /  9.4 °C 44.1 °F /  6.7 °C 30 in /  1014.4 hPa WSW 4 mph /  6.4 km/h 13 mph /  20.9 km/h 83 % 0 in /  0.0 mm
02:02 48.9 °F /  9.4 °C 44.2 °F /  6.8 °C 30 in /  1014.4 hPa WSW 11 mph /  17.7 km/h 13 mph /  20.9 km/h 84 % 0 in /  0.0 mm
02:07 48.9 °F /  9.4 °C 44.2 °F /  6.8 °C 30 in /  1014.4 hPa SW 8 mph /  12.9 km/h 17 mph /  27.4 km/h 84 % 0 in /  0.0 mm
02:12 48.7 °F /  9.3 °C 44.1 °F /  6.7 °C 30 in /  1014.4 hPa WSW 9 mph /  14.5 km/h 17 mph /  27.4 km/h 84 % 0 in /  0.0 mm
02:17 48.7 °F /  9.3 °C 44.1 °F /  6.7 °C 30 in /  1014.4 hPa WSW 11 mph /  17.7 km/h 14 mph /  22.5 km/h 84 % 0 in /  0.0 mm
02:22 48.7 °F /  9.3 °C 44.1 °F /  6.7 °C 30 in /  1014.4 hPa WSW 7 mph /  11.3 km/h 14 mph /  22.5 km/h 84 % 0 in /  0.0 mm
02:27 48.7 °F /  9.3 °C 44.1 °F /  6.7 °C 30 in /  1014.4 hPa WSW 6 mph /  9.7 km/h 16 mph /  25.7 km/h 84 % 0 in /  0.0 mm
02:32 48.6 °F /  9.2 °C 43.9 °F /  6.6 °C 30 in /  1014.4 hPa SSW 6 mph /  9.7 km/h 16 mph /  25.7 km/h 84 % 0 in /  0.0 mm
02:42 48.6 °F /  9.2 °C 44.2 °F /  6.8 °C 30 in /  1014.4 hPa WSW 9 mph /  14.5 km/h 12 mph /  19.3 km/h 85 % 0 in /  0.0 mm
02:47 48.6 °F /  9.2 °C 44.2 °F /  6.8 °C 30 in /  1014.4 hPa SW 9 mph /  14.5 km/h 12 mph /  19.3 km/h 85 % 0 in /  0.0 mm
02:52 48.6 °F /  9.2 °C 44.2 °F /  6.8 °C 30 in /  1014.4 hPa SW 5 mph /  8.0 km/h 12 mph /  19.3 km/h 85 % 0 in /  0.0 mm
02:57 48.4 °F /  9.1 °C 44.1 °F /  6.7 °C 30 in /  1014.4 hPa SW 4 mph /  6.4 km/h 12 mph /  19.3 km/h 85 % 0 in /  0.0 mm
03:02 48.6 °F /  9.2 °C 44.2 °F /  6.8 °C 29.9 in /  1014.1 hPa WSW 4 mph /  6.4 km/h 12 mph /  19.3 km/h 85 % 0 in /  0.0 mm
03:07 48.6 °F /  9.2 °C 44.2 °F /  6.8 °C 29.9 in /  1014.1 hPa SW 5 mph /  8.0 km/h 11 mph /  17.7 km/h 85 % 0 in /  0.0 mm
03:12 48.4 °F /  9.1 °C 44.1 °F /  6.7 °C 29.9 in /  1014.1 hPa SW 6 mph /  9.7 km/h 11 mph /  17.7 km/h 85 % 0 in /  0.0 mm
03:17 48.4 °F /  9.1 °C 44.4 °F /  6.9 °C 29.9 in /  1014.1 hPa SW 6 mph /  9.7 km/h 14 mph /  22.5 km/h 86 % 0 in /  0.0 mm
03:22 48.2 °F /  9.0 °C 44.6 °F /  7.0 °C 29.9 in /  1014.1 hPa WSW 4 mph /  6.4 km/h 14 mph /  22.5 km/h 87 % 0 in /  0.0 mm
03:32 47.8 °F /  8.8 °C 44.2 °F /  6.8 °C 29.9 in /  1014.1 hPa SW 7 mph /  11.3 km/h 12 mph /  19.3 km/h 87 % 0 in /  0.0 mm
03:37 47.8 °F /  8.8 °C 44.4 °F /  6.9 °C 29.9 in /  1014.1 hPa SW 6 mph /  9.7 km/h 11 mph /  17.7 km/h 88 % 0 in /  0.0 mm
03:42 47.8 °F /  8.8 °C 44.4 °F /  6.9 °C 29.9 in /  1014.1 hPa SW 10 mph /  16.1 km/h 11 mph /  17.7 km/h 88 % 0 in /  0.0 mm
03:52 47.8 °F /  8.8 °C 44.4 °F /  6.9 °C 29.9 in /  1014.1 hPa WSW 11 mph /  17.7 km/h 12 mph /  19.3 km/h 88 % 0 in /  0.0 mm
03:57 47.7 °F /  8.7 °C 44.2 °F /  6.8 °C 29.9 in /  1013.8 hPa SW 6 mph /  9.7 km/h 14 mph /  22.5 km/h 88 % 0 in /  0.0 mm
04:02 47.5 °F /  8.6 °C 44.8 °F /  7.1 °C 29.9 in /  1013.8 hPa WSW 6 mph /  9.7 km/h 14 mph /  22.5 km/h 90 % 0 in /  0.0 mm
04:07 47.3 °F /  8.5 °C 44.8 °F /  7.1 °C 29.9 in /  1013.8 hPa SW 8 mph /  12.9 km/h 14 mph /  22.5 km/h 91 % 0 in /  0.0 mm
04:12 47.1 °F /  8.4 °C 45 °F /  7.2 °C 29.9 in /  1013.8 hPa WSW 7 mph /  11.3 km/h 14 mph /  22.5 km/h 92 % 0 in /  0.0 mm
04:17 46.9 °F /  8.3 °C 44.8 °F /  7.1 °C 29.9 in /  1013.8 hPa SW 5 mph /  8.0 km/h 11 mph /  17.7 km/h 92 % 0 in /  0.0 mm
04:22 46.9 °F /  8.3 °C 44.8 °F /  7.1 °C 29.9 in /  1013.8 hPa SW 3 mph /  4.8 km/h 11 mph /  17.7 km/h 92 % 0 in /  0.0 mm
04:27 46.9 °F /  8.3 °C 44.8 °F /  7.1 °C 29.9 in /  1013.8 hPa WSW 4 mph /  6.4 km/h 13 mph /  20.9 km/h 92 % 0 in /  0.0 mm
04:32 46.9 °F /  8.3 °C 44.8 °F /  7.1 °C 29.9 in /  1013.8 hPa SW 7 mph /  11.3 km/h 13 mph /  20.9 km/h 92 % 0 in /  0.0 mm
04:42 47.1 °F /  8.4 °C 44.6 °F /  7.0 °C 29.9 in /  1013.8 hPa SW 7 mph /  11.3 km/h 11 mph /  17.7 km/h 91 % 0 in /  0.0 mm
04:47 47.1 °F /  8.4 °C 44.6 °F /  7.0 °C 29.9 in /  1013.8 hPa SW 10 mph /  16.1 km/h 13 mph /  20.9 km/h 91 % 0 in /  0.0 mm
04:52 46.9 °F /  8.3 °C 44.8 °F /  7.1 °C 29.9 in /  1013.8 hPa SW 8 mph /  12.9 km/h 13 mph /  20.9 km/h 92 % 0 in /  0.0 mm
04:57 46.8 °F /  8.2 °C 44.8 °F /  7.1 °C 29.9 in /  1013.8 hPa SW 7 mph /  11.3 km/h 14 mph /  22.5 km/h 93 % 0 in /  0.0 mm
05:02 46.8 °F /  8.2 °C 44.8 °F /  7.1 °C 29.9 in /  1013.8 hPa SW 6 mph /  9.7 km/h 14 mph /  22.5 km/h 93 % 0 in /  0.0 mm
05:07 46.6 °F /  8.1 °C 44.6 °F /  7.0 °C 29.9 in /  1013.8 hPa SSW 11 mph /  17.7 km/h 14 mph /  22.5 km/h 93 % 0 in /  0.0 mm
05:17 46.6 °F /  8.1 °C 45 °F /  7.2 °C 29.9 in /  1013.8 hPa SSW 7 mph /  11.3 km/h 13 mph /  20.9 km/h 94 % 0 in /  0.0 mm
05:22 46.6 °F /  8.1 °C 45 °F /  7.2 °C 29.9 in /  1013.4 hPa SW 8 mph /  12.9 km/h 13 mph /  20.9 km/h 94 % 0 in /  0.0 mm
05:32 46.6 °F /  8.1 °C 45 °F /  7.2 °C 29.9 in /  1013.4 hPa SSW 8 mph /  12.9 km/h 12 mph /  19.3 km/h 94 % 0 in /  0.0 mm
05:42 46.6 °F /  8.1 °C 45 °F /  7.2 °C 29.9 in /  1013.4 hPa SSW 6 mph /  9.7 km/h 13 mph /  20.9 km/h 94 % 0 in /  0.0 mm
05:52 46.4 °F /  8.0 °C 44.8 °F /  7.1 °C 29.9 in /  1013.4 hPa SW 6 mph /  9.7 km/h 12 mph /  19.3 km/h 94 % 0 in /  0.0 mm
06:02 46.2 °F /  7.9 °C 44.8 °F /  7.1 °C 29.9 in /  1013.4 hPa SSW 7 mph /  11.3 km/h 11 mph /  17.7 km/h 95 % 0 in /  0.0 mm
06:12 46.2 °F /  7.9 °C 44.8 °F /  7.1 °C 29.9 in /  1013.8 hPa SW 8 mph /  12.9 km/h 11 mph /  17.7 km/h 95 % 0 in /  0.0 mm
06:17 46.2 °F /  7.9 °C 44.8 °F /  7.1 °C 29.9 in /  1013.4 hPa SW 6 mph /  9.7 km/h 11 mph /  17.7 km/h 95 % 0 in /  0.0 mm
06:27 46 °F /  7.8 °C 45 °F /  7.2 °C 29.9 in /  1013.4 hPa SW 5 mph /  8.0 km/h 11 mph /  17.7 km/h 96 % 0 in /  0.0 mm
06:32 46 °F /  7.8 °C 45 °F /  7.2 °C 29.9 in /  1013.4 hPa SW 6 mph /  9.7 km/h 11 mph /  17.7 km/h 96 % 0 in /  0.0 mm
06:42 46 °F /  7.8 °C 45 °F /  7.2 °C 29.9 in /  1013.4 hPa SW 6 mph /  9.7 km/h 10 mph /  16.1 km/h 96 % 0 in /  0.0 mm
06:47 46 °F /  7.8 °C 45 °F /  7.2 °C 29.9 in /  1013.4 hPa SSW 6 mph /  9.7 km/h 10 mph /  16.1 km/h 96 % 0 in /  0.0 mm
06:52 46 °F /  7.8 °C 45 °F /  7.2 °C 29.9 in /  1013.4 hPa SSW 6 mph /  9.7 km/h 10 mph /  16.1 km/h 96 % 0 in /  0.0 mm
06:57 46 °F /  7.8 °C 45 °F /  7.2 °C 29.9 in /  1013.4 hPa SW 7 mph /  11.3 km/h 10 mph /  16.1 km/h 96 % 0 in /  0.0 mm
07:02 46 °F /  7.8 °C 45 °F /  7.2 °C 29.9 in /  1013.4 hPa SW 6 mph /  9.7 km/h 10 mph /  16.1 km/h 96 % 0 in /  0.0 mm
07:07 46 °F /  7.8 °C 45 °F /  7.2 °C 29.9 in /  1013.4 hPa WSW 5 mph /  8.0 km/h 10 mph /  16.1 km/h 96 % 0 in /  0.0 mm
07:12 46 °F /  7.8 °C 45 °F /  7.2 °C 29.9 in /  1013.4 hPa SSW 4 mph /  6.4 km/h 10 mph /  16.1 km/h 96 % 0 in /  0.0 mm
07:17 46 °F /  7.8 °C 45 °F /  7.2 °C 29.9 in /  1013.4 hPa SW 8 mph /  12.9 km/h 10 mph /  16.1 km/h 96 % 0 in /  0.0 mm
07:22 46 °F /  7.8 °C 45 °F /  7.2 °C 29.9 in /  1013.4 hPa SW 7 mph /  11.3 km/h 11 mph /  17.7 km/h 96 % 0 in /  0.0 mm
07:27 46 °F /  7.8 °C 45 °F /  7.2 °C 29.9 in /  1013.4 hPa SW 5 mph /  8.0 km/h 11 mph /  17.7 km/h 96 % 0 in /  0.0 mm
07:32 46.2 °F /  7.9 °C 45.1 °F /  7.3 °C 29.9 in /  1013.8 hPa SW 4 mph /  6.4 km/h 11 mph /  17.7 km/h 96 % 0 in /  0.0 mm
07:37 46.2 °F /  7.9 °C 45.1 °F /  7.3 °C 29.9 in /  1013.8 hPa SSW 5 mph /  8.0 km/h 11 mph /  17.7 km/h 96 % 0 in /  0.0 mm
07:42 46.2 °F /  7.9 °C 45.1 °F /  7.3 °C 29.9 in /  1013.4 hPa SW 9 mph /  14.5 km/h 10 mph /  16.1 km/h 96 % 0 in /  0.0 mm
07:47 46.2 °F /  7.9 °C 45.5 °F /  7.5 °C 29.9 in /  1013.8 hPa SW 7 mph /  11.3 km/h 10 mph /  16.1 km/h 97 % 0 in /  0.0 mm
07:52 46.2 °F /  7.9 °C 45.5 °F /  7.5 °C 29.9 in /  1013.8 hPa SW 7 mph /  11.3 km/h 11 mph /  17.7 km/h 97 % 0 in /  0.0 mm
07:57 46.4 °F /  8.0 °C 45.7 °F /  7.6 °C 29.9 in /  1013.8 hPa SSW 5 mph /  8.0 km/h 11 mph /  17.7 km/h 97 % 0 in /  0.0 mm
08:02 46.4 °F /  8.0 °C 45.7 °F /  7.6 °C 29.9 in /  1013.8 hPa SW 5 mph /  8.0 km/h 9 mph /  14.5 km/h 97 % 0 in /  0.0 mm
08:07 46.6 °F /  8.1 °C 45.9 °F /  7.7 °C 29.9 in /  1013.8 hPa SW 6 mph /  9.7 km/h 9 mph /  14.5 km/h 97 % 0 in /  0.0 mm
08:12 46.6 °F /  8.1 °C 45.9 °F /  7.7 °C 29.9 in /  1013.8 hPa SW 3 mph /  4.8 km/h 10 mph /  16.1 km/h 97 % 0 in /  0.0 mm
08:17 46.6 °F /  8.1 °C 45.9 °F /  7.7 °C 29.9 in /  1013.8 hPa SW 3 mph /  4.8 km/h 10 mph /  16.1 km/h 97 % 0 in /  0.0 mm
08:22 46.6 °F /  8.1 °C 45.9 °F /  7.7 °C 29.9 in /  1013.8 hPa SW 5 mph /  8.0 km/h 9 mph /  14.5 km/h 97 % 0 in /  0.0 mm
08:32 46.8 °F /  8.2 °C 46 °F /  7.8 °C 29.9 in /  1013.8 hPa SW 6 mph /  9.7 km/h 9 mph /  14.5 km/h 97 % 0 in /  0.0 mm
08:37 46.8 °F /  8.2 °C 46 °F /  7.8 °C 29.9 in /  1013.8 hPa SW 3 mph /  4.8 km/h 9 mph /  14.5 km/h 97 % 0 in /  0.0 mm
08:42 46.8 °F /  8.2 °C 46 °F /  7.8 °C 29.9 in /  1013.8 hPa SW 4 mph /  6.4 km/h 8 mph /  12.9 km/h 97 % 0 in /  0.0 mm
08:47 46.9 °F /  8.3 °C 46.2 °F /  7.9 °C 29.9 in /  1013.8 hPa WSW 6 mph /  9.7 km/h 8 mph /  12.9 km/h 97 % 0 in /  0.0 mm
08:57 47.1 °F /  8.4 °C 46.4 °F /  8.0 °C 29.9 in /  1013.8 hPa West 6 mph /  9.7 km/h 7 mph /  11.3 km/h 97 % 0.01 in /  0.3 mm
09:02 47.1 °F /  8.4 °C 46 °F /  7.8 °C 29.9 in /  1013.8 hPa WSW 4 mph /  6.4 km/h 10 mph /  16.1 km/h 96 % 0.01 in /  0.3 mm
09:07 47.1 °F /  8.4 °C 46 °F /  7.8 °C 29.9 in /  1013.8 hPa West 2 mph /  3.2 km/h 10 mph /  16.1 km/h 96 % 0.01 in /  0.3 mm
09:17 47.5 °F /  8.6 °C 46.4 °F /  8.0 °C 29.9 in /  1013.8 hPa SW 3 mph /  4.8 km/h 9 mph /  14.5 km/h 96 % 0.02 in /  0.5 mm
09:22 47.5 °F /  8.6 °C 46.4 °F /  8.0 °C 29.9 in /  1013.8 hPa West 5 mph /  8.0 km/h 9 mph /  14.5 km/h 96 % 0.02 in /  0.5 mm
09:27 47.5 °F /  8.6 °C 46.4 °F /  8.0 °C 29.9 in /  1013.8 hPa West 4 mph /  6.4 km/h 9 mph /  14.5 km/h 96 % 0.02 in /  0.5 mm
09:32 47.7 °F /  8.7 °C 46.6 °F /  8.1 °C 29.9 in /  1013.8 hPa WSW 5 mph /  8.0 km/h 10 mph /  16.1 km/h 96 % 0.02 in /  0.5 mm
09:37 47.7 °F /  8.7 °C 46.2 °F /  7.9 °C 29.9 in /  1014.1 hPa West 2 mph /  3.2 km/h 10 mph /  16.1 km/h 95 % 0.02 in /  0.5 mm
09:42 47.8 °F /  8.8 °C 46.4 °F /  8.0 °C 29.9 in /  1014.1 hPa West 3 mph /  4.8 km/h 10 mph /  16.1 km/h 95 % 0.02 in /  0.5 mm
09:47 47.8 °F /  8.8 °C 46.4 °F /  8.0 °C 29.9 in /  1014.1 hPa WSW 1 mph /  1.6 km/h 10 mph /  16.1 km/h 95 % 0.02 in /  0.5 mm
09:52 48 °F /  8.9 °C 46.6 °F /  8.1 °C 29.9 in /  1013.8 hPa West 3 mph /  4.8 km/h 9 mph /  14.5 km/h 95 % 0.03 in /  0.8 mm
09:57 48 °F /  8.9 °C 46.6 °F /  8.1 °C 29.9 in /  1013.8 hPa WSW 2 mph /  3.2 km/h 9 mph /  14.5 km/h 95 % 0.03 in /  0.8 mm
10:02 48.2 °F /  9.0 °C 46.8 °F /  8.2 °C 29.9 in /  1013.8 hPa Calm   6 mph /  9.7 km/h 95 % 0.04 in /  1.0 mm
10:07 48.4 °F /  9.1 °C 46.8 °F /  8.2 °C 29.9 in /  1014.1 hPa West 1 mph /  1.6 km/h 6 mph /  9.7 km/h 94 % 0.04 in /  1.0 mm
10:12 48.4 °F /  9.1 °C 46.8 °F /  8.2 °C 29.9 in /  1014.1 hPa WSW 1 mph /  1.6 km/h 3 mph /  4.8 km/h 94 % 0.04 in /  1.0 mm
10:17 48.4 °F /  9.1 °C 46.8 °F /  8.2 °C 29.9 in /  1014.1 hPa West 1 mph /  1.6 km/h 3 mph /  4.8 km/h 94 % 0.04 in /  1.0 mm
10:22 48.4 °F /  9.1 °C 46.4 °F /  8.0 °C 29.9 in /  1014.1 hPa SW 2 mph /  3.2 km/h 2 mph /  3.2 km/h 93 % 0.04 in /  1.0 mm
10:27 48.4 °F /  9.1 °C 46.4 °F /  8.0 °C 29.9 in /  1014.1 hPa Calm   2 mph /  3.2 km/h 93 % 0.04 in /  1.0 mm
10:32 48.6 °F /  9.2 °C 46.4 °F /  8.0 °C 29.9 in /  1014.1 hPa Calm   3 mph /  4.8 km/h 92 % 0.04 in /  1.0 mm
10:37 48.7 °F /  9.3 °C 46.6 °F /  8.1 °C 29.9 in /  1014.1 hPa SW 2 mph /  3.2 km/h 3 mph /  4.8 km/h 92 % 0.04 in /  1.0 mm
10:42 48.7 °F /  9.3 °C 46.8 °F /  8.2 °C 29.9 in /  1014.1 hPa Calm   4 mph /  6.4 km/h 93 % 0.03 in /  0.8 mm
10:47 48.9 °F /  9.4 °C 46.9 °F /  8.3 °C 29.9 in /  1014.1 hPa Calm   4 mph /  6.4 km/h 93 % 0.03 in /  0.8 mm
10:52 48.9 °F /  9.4 °C 46.9 °F /  8.3 °C 29.9 in /  1014.1 hPa SW 2 mph /  3.2 km/h 4 mph /  6.4 km/h 93 % 0.02 in /  0.5 mm
11:02 48.9 °F /  9.4 °C 47.3 °F /  8.5 °C 29.9 in /  1014.1 hPa WNW 2 mph /  3.2 km/h 3 mph /  4.8 km/h 94 % 0.02 in /  0.5 mm
11:12 48.9 °F /  9.4 °C 46.9 °F /  8.3 °C 29.9 in /  1014.1 hPa WSW 4 mph /  6.4 km/h 4 mph /  6.4 km/h 93 % 0.03 in /  0.8 mm
11:17 48.7 °F /  9.3 °C 46.6 °F /  8.1 °C 30 in /  1014.4 hPa West 2 mph /  3.2 km/h 4 mph /  6.4 km/h 92 % 0.03 in /  0.8 mm
11:22 48.7 °F /  9.3 °C 46.6 °F /  8.1 °C 29.9 in /  1014.1 hPa WSW 3 mph /  4.8 km/h 8 mph /  12.9 km/h 92 % 0.02 in /  0.5 mm
11:32 48.7 °F /  9.3 °C 45.9 °F /  7.7 °C 30 in /  1014.4 hPa West 3 mph /  4.8 km/h 8 mph /  12.9 km/h 90 % 0.03 in /  0.8 mm
11:37 48.7 °F /  9.3 °C 45.3 °F /  7.4 °C 30 in /  1014.4 hPa WNW 5 mph /  8.0 km/h 8 mph /  12.9 km/h 88 % 0.03 in /  0.8 mm
11:42 48.9 °F /  9.4 °C 45.9 °F /  7.7 °C 30 in /  1014.4 hPa WNW 4 mph /  6.4 km/h 8 mph /  12.9 km/h 89 % 0.03 in /  0.8 mm
11:47 48.6 °F /  9.2 °C 45.1 °F /  7.3 °C 30 in /  1014.4 hPa NNW 8 mph /  12.9 km/h 8 mph /  12.9 km/h 88 % 0.03 in /  0.8 mm
11:52 47.8 °F /  8.8 °C 44.4 °F /  6.9 °C 30 in /  1014.4 hPa West 5 mph /  8.0 km/h 10 mph /  16.1 km/h 88 % 0.05 in /  1.3 mm
12:02 47.1 °F /  8.4 °C 43.7 °F /  6.5 °C 30 in /  1014.4 hPa NW 7 mph /  11.3 km/h 11 mph /  17.7 km/h 88 % 0.06 in /  1.5 mm
12:07 47.3 °F /  8.5 °C 44.2 °F /  6.8 °C 30 in /  1014.4 hPa WNW 1 mph /  1.6 km/h 11 mph /  17.7 km/h 89 % 0.05 in /  1.3 mm
12:12 47.5 °F /  8.6 °C 44.4 °F /  6.9 °C 30 in /  1014.4 hPa WNW 5 mph /  8.0 km/h 11 mph /  17.7 km/h 89 % 0.05 in /  1.3 mm
12:17 47.7 °F /  8.7 °C 45 °F /  7.2 °C 30 in /  1014.4 hPa NW 2 mph /  3.2 km/h 9 mph /  14.5 km/h 90 % 0.05 in /  1.3 mm
12:22 47.8 °F /  8.8 °C 44.8 °F /  7.1 °C 30 in /  1014.4 hPa NW 1 mph /  1.6 km/h 7 mph /  11.3 km/h 89 % 0.04 in /  1.0 mm
12:32 48 °F /  8.9 °C 45 °F /  7.2 °C 30 in /  1014.4 hPa WNW 3 mph /  4.8 km/h 7 mph /  11.3 km/h 89 % 0.04 in /  1.0 mm
12:37 48.2 °F /  9.0 °C 45.1 °F /  7.3 °C 30 in /  1014.8 hPa WNW 3 mph /  4.8 km/h 7 mph /  11.3 km/h 89 % 0.04 in /  1.0 mm
12:42 48 °F /  8.9 °C 44.6 °F /  7.0 °C 30 in /  1014.8 hPa West 5 mph /  8.0 km/h 7 mph /  11.3 km/h 88 % 0.04 in /  1.0 mm
12:47 48 °F /  8.9 °C 45 °F /  7.2 °C 30 in /  1014.8 hPa NW 7 mph /  11.3 km/h 9 mph /  14.5 km/h 89 % 0.02 in /  0.5 mm
12:52 47.8 °F /  8.8 °C 43.5 °F /  6.4 °C 30 in /  1014.8 hPa NW 4 mph /  6.4 km/h 9 mph /  14.5 km/h 85 % 0.01 in /  0.3 mm
12:57 47.7 °F /  8.7 °C 43.3 °F /  6.3 °C 30 in /  1014.8 hPa WNW 7 mph /  11.3 km/h 11 mph /  17.7 km/h 85 % 0.02 in /  0.5 mm
13:02 47.5 °F /  8.6 °C 42.8 °F /  6.0 °C 30 in /  1014.4 hPa NW 2 mph /  3.2 km/h 11 mph /  17.7 km/h 84 % 0.02 in /  0.5 mm
13:07 47.7 °F /  8.7 °C 43.3 °F /  6.3 °C 30 in /  1014.4 hPa West 1 mph /  1.6 km/h 10 mph /  16.1 km/h 85 % 0.01 in /  0.3 mm
13:12 47.8 °F /  8.8 °C 44.4 °F /  6.9 °C 30 in /  1014.4 hPa NW 2 mph /  3.2 km/h 10 mph /  16.1 km/h 88 % 0.01 in /  0.3 mm
13:17 47.8 °F /  8.8 °C 44.2 °F /  6.8 °C 30 in /  1014.8 hPa WNW 7 mph /  11.3 km/h 7 mph /  11.3 km/h 87 % 0.01 in /  0.3 mm
13:22 47.7 °F /  8.7 °C 43.3 °F /  6.3 °C 30 in /  1014.8 hPa NW 2 mph /  3.2 km/h 6 mph /  9.7 km/h 85 % 0.01 in /  0.3 mm
13:32 47.1 °F /  8.4 °C 43.5 °F /  6.4 °C 30 in /  1014.8 hPa WNW 2 mph /  3.2 km/h 8 mph /  12.9 km/h 87 % 0.01 in /  0.3 mm
13:47 47.1 °F /  8.4 °C 44.4 °F /  6.9 °C 30 in /  1014.8 hPa WNW 5 mph /  8.0 km/h 8 mph /  12.9 km/h 90 % 0.02 in /  0.5 mm
13:52 47.1 °F /  8.4 °C 44.4 °F /  6.9 °C 30 in /  1014.8 hPa NNW 10 mph /  16.1 km/h 10 mph /  16.1 km/h 90 % 0.02 in /  0.5 mm
13:57 46 °F /  7.8 °C 43 °F /  6.1 °C 30 in /  1015.1 hPa NNW 7 mph /  11.3 km/h 15 mph /  24.1 km/h 89 % 0.02 in /  0.5 mm
14:02 45.1 °F /  7.3 °C 42.4 °F /  5.8 °C 30 in /  1015.1 hPa WNW 6 mph /  9.7 km/h 15 mph /  24.1 km/h 90 % 0.02 in /  0.5 mm
14:12 44.6 °F /  7.0 °C 42.4 °F /  5.8 °C 30 in /  1015.1 hPa NW 2 mph /  3.2 km/h 16 mph /  25.7 km/h 92 % 0.03 in /  0.8 mm
14:17 44.8 °F /  7.1 °C 42.6 °F /  5.9 °C 30 in /  1015.1 hPa NW 7 mph /  11.3 km/h 16 mph /  25.7 km/h 92 % 0.04 in /  1.0 mm
14:22 44.4 °F /  6.9 °C 41.9 °F /  5.5 °C 30 in /  1015.1 hPa NW 6 mph /  9.7 km/h 16 mph /  25.7 km/h 91 % 0.04 in /  1.0 mm
14:32 44.4 °F /  6.9 °C 41.7 °F /  5.4 °C 30 in /  1015.1 hPa NW 10 mph /  16.1 km/h 15 mph /  24.1 km/h 90 % 0.05 in /  1.3 mm
14:42 44.4 °F /  6.9 °C 41.4 °F /  5.2 °C 30 in /  1015.1 hPa NW 1 mph /  1.6 km/h 13 mph /  20.9 km/h 89 % 0.05 in /  1.3 mm
14:47 44.4 °F /  6.9 °C 41.7 °F /  5.4 °C 30 in /  1015.1 hPa NNW 4 mph /  6.4 km/h 13 mph /  20.9 km/h 90 % 0.05 in /  1.3 mm
14:52 44.4 °F /  6.9 °C 41.7 °F /  5.4 °C 30 in /  1015.1 hPa NNE 2 mph /  3.2 km/h 13 mph /  20.9 km/h 90 % 0.05 in /  1.3 mm
15:02 44.4 °F /  6.9 °C 41.7 °F /  5.4 °C 30 in /  1015.1 hPa NW 4 mph /  6.4 km/h 10 mph /  16.1 km/h 90 % 0.05 in /  1.3 mm
15:12 44.4 °F /  6.9 °C 41.7 °F /  5.4 °C 30 in /  1015.1 hPa WNW 4 mph /  6.4 km/h 12 mph /  19.3 km/h 90 % 0.04 in /  1.0 mm
15:17 44.2 °F /  6.8 °C 41.5 °F /  5.3 °C 30 in /  1015.1 hPa NW 3 mph /  4.8 km/h 16 mph /  25.7 km/h 90 % 0.03 in /  0.8 mm
15:22 44.1 °F /  6.7 °C 41 °F /  5.0 °C 30 in /  1015.1 hPa WNW 4 mph /  6.4 km/h 16 mph /  25.7 km/h 89 % 0.03 in /  0.8 mm
15:27 43.9 °F /  6.6 °C 41.2 °F /  5.1 °C 30 in /  1015.1 hPa North 1 mph /  1.6 km/h 16 mph /  25.7 km/h 90 % 0.02 in /  0.5 mm
15:32 44.1 °F /  6.7 °C 41.5 °F /  5.3 °C 30 in /  1015.1 hPa NW 1 mph /  1.6 km/h 16 mph /  25.7 km/h 91 % 0.02 in /  0.5 mm
15:37 44.1 °F /  6.7 °C 41.5 °F /  5.3 °C 30 in /  1015.1 hPa NNW 5 mph /  8.0 km/h 10 mph /  16.1 km/h 91 % 0.02 in /  0.5 mm
15:42 44.1 °F /  6.7 °C 41.4 °F /  5.2 °C 30 in /  1015.1 hPa NNW 2 mph /  3.2 km/h 10 mph /  16.1 km/h 90 % 0.02 in /  0.5 mm
15:47 44.1 °F /  6.7 °C 41.4 °F /  5.2 °C 30 in /  1015.1 hPa West 3 mph /  4.8 km/h 9 mph /  14.5 km/h 90 % 0.02 in /  0.5 mm
16:02 44.1 °F /  6.7 °C 41 °F /  5.0 °C 30 in /  1015.1 hPa NNW 5 mph /  8.0 km/h 11 mph /  17.7 km/h 89 % 0.02 in /  0.5 mm
16:12 44.1 °F /  6.7 °C 41 °F /  5.0 °C 30 in /  1015.5 hPa NW 1 mph /  1.6 km/h 11 mph /  17.7 km/h 89 % 0.02 in /  0.5 mm
16:17 44.1 °F /  6.7 °C 40.8 °F /  4.9 °C 30 in /  1015.5 hPa NW 4 mph /  6.4 km/h 9 mph /  14.5 km/h 88 % 0.02 in /  0.5 mm
16:27 44.1 °F /  6.7 °C 40.8 °F /  4.9 °C 30 in /  1015.5 hPa Calm   9 mph /  14.5 km/h 88 % 0.01 in /  0.3 mm
16:32 44.1 °F /  6.7 °C 40.8 °F /  4.9 °C 30 in /  1015.5 hPa Calm   9 mph /  14.5 km/h 88 % 0.01 in /  0.3 mm
16:37 44.1 °F /  6.7 °C 40.8 °F /  4.9 °C 30 in /  1015.5 hPa Calm   5 mph /  8.0 km/h 88 % 0.01 in /  0.3 mm
16:42 44.1 °F /  6.7 °C 40.8 °F /  4.9 °C 30 in /  1015.5 hPa WNW 1 mph /  1.6 km/h 5 mph /  8.0 km/h 88 % 0.01 in /  0.3 mm
16:47 44.2 °F /  6.8 °C 41 °F /  5.0 °C 30 in /  1015.5 hPa WNW 1 mph /  1.6 km/h 2 mph /  3.2 km/h 88 % 0.01 in /  0.3 mm
16:52 44.2 °F /  6.8 °C 41 °F /  5.0 °C 30 in /  1015.5 hPa Calm   2 mph /  3.2 km/h 88 % 0.01 in /  0.3 mm
17:02 44.2 °F /  6.8 °C 41 °F /  5.0 °C 30 in /  1015.5 hPa Calm   2 mph /  3.2 km/h 88 % 0.01 in /  0.3 mm
17:07 44.2 °F /  6.8 °C 41 °F /  5.0 °C 30 in /  1015.5 hPa West 1 mph /  1.6 km/h 2 mph /  3.2 km/h 88 % 0.01 in /  0.3 mm
17:12 44.2 °F /  6.8 °C 41 °F /  5.0 °C 30 in /  1015.5 hPa WNW 1 mph /  1.6 km/h 2 mph /  3.2 km/h 88 % 0.01 in /  0.3 mm
17:17 44.2 °F /  6.8 °C 41 °F /  5.0 °C 30 in /  1015.5 hPa WNW 2 mph /  3.2 km/h 3 mph /  4.8 km/h 88 % 0.01 in /  0.3 mm
17:22 44.2 °F /  6.8 °C 40.6 °F /  4.8 °C 30 in /  1015.5 hPa WNW 4 mph /  6.4 km/h 4 mph /  6.4 km/h 87 % 0.01 in /  0.3 mm
17:32 44.4 °F /  6.9 °C 41.2 °F /  5.1 °C 30 in /  1015.5 hPa WSW 2 mph /  3.2 km/h 6 mph /  9.7 km/h 88 % 0.01 in /  0.3 mm
17:37 44.4 °F /  6.9 °C 39.2 °F /  4.0 °C 30 in /  1015.5 hPa West 2 mph /  3.2 km/h 8 mph /  12.9 km/h 82 % 0.01 in /  0.3 mm
17:42 44.4 °F /  6.9 °C 39.6 °F /  4.2 °C 30 in /  1015.5 hPa West 1 mph /  1.6 km/h 8 mph /  12.9 km/h 83 % 0.01 in /  0.3 mm
17:47 44.4 °F /  6.9 °C 39.6 °F /  4.2 °C 30 in /  1015.5 hPa WNW 4 mph /  6.4 km/h 8 mph /  12.9 km/h 83 % 0.01 in /  0.3 mm
17:52 44.2 °F /  6.8 °C 40.1 °F /  4.5 °C 30 in /  1015.5 hPa Calm   8 mph /  12.9 km/h 85 % 0.01 in /  0.3 mm
18:02 44.1 °F /  6.7 °C 40.1 °F /  4.5 °C 30 in /  1015.5 hPa West 1 mph /  1.6 km/h 4 mph /  6.4 km/h 86 % 0.01 in /  0.3 mm
18:12 43.9 °F /  6.6 °C 40.3 °F /  4.6 °C 30 in /  1015.5 hPa Calm   2 mph /  3.2 km/h 87 % 0.02 in /  0.5 mm
18:17 43.7 °F /  6.5 °C 40.1 °F /  4.5 °C 30 in /  1015.5 hPa Calm   2 mph /  3.2 km/h 87 % 0.02 in /  0.5 mm
18:22 43.5 °F /  6.4 °C 39.9 °F /  4.4 °C 30 in /  1015.5 hPa Calm   1 mph /  1.6 km/h 87 % 0.02 in /  0.5 mm
18:27 43.5 °F /  6.4 °C 39.9 °F /  4.4 °C 30 in /  1015.8 hPa Calm   1 mph /  1.6 km/h 87 % 0.02 in /  0.5 mm
18:32 43.5 °F /  6.4 °C 39.9 °F /  4.4 °C 30 in /  1015.8 hPa Calm   1 mph /  1.6 km/h 87 % 0.02 in /  0.5 mm
18:37 43.5 °F /  6.4 °C 40.3 °F /  4.6 °C 30 in /  1015.8 hPa Calm   1 mph /  1.6 km/h 88 % 0.02 in /  0.5 mm
18:42 43.5 °F /  6.4 °C 40.8 °F /  4.9 °C 30 in /  1015.8 hPa Calm   1 mph /  1.6 km/h 90 % 0.01 in /  0.3 mm
18:52 43.5 °F /  6.4 °C 41 °F /  5.0 °C 30 in /  1015.8 hPa Calm   1 mph /  1.6 km/h 91 % 0.01 in /  0.3 mm
18:57 43.3 °F /  6.3 °C 40.8 °F /  4.9 °C 30 in /  1015.8 hPa Calm   1 mph /  1.6 km/h 91 % 0.01 in /  0.3 mm
19:02 43.2 °F /  6.2 °C 40.6 °F /  4.8 °C 30 in /  1016.1 hPa Calm   1 mph /  1.6 km/h 91 % 0.01 in /  0.3 mm
19:07 43.2 °F /  6.2 °C 41 °F /  5.0 °C 30 in /  1016.1 hPa Calm   1 mph /  1.6 km/h 92 % 0.01 in /  0.3 mm
19:12 43.2 °F /  6.2 °C 41 °F /  5.0 °C 30 in /  1016.1 hPa Calm   1 mph /  1.6 km/h 92 % 0 in /  0.0 mm
19:17 43.2 °F /  6.2 °C 41 °F /  5.0 °C 30 in /  1016.1 hPa SSW 2 mph /  3.2 km/h 3 mph /  4.8 km/h 92 % 0 in /  0.0 mm
19:22 43.2 °F /  6.2 °C 41 °F /  5.0 °C 30 in /  1016.1 hPa Calm   3 mph /  4.8 km/h 92 % 0 in /  0.0 mm
19:32 43.3 °F /  6.3 °C 41.5 °F /  5.3 °C 30 in /  1016.1 hPa SSW 1 mph /  1.6 km/h 3 mph /  4.8 km/h 93 % 0 in /  0.0 mm
19:37 43.3 °F /  6.3 °C 41.5 °F /  5.3 °C 30 in /  1016.1 hPa South 1 mph /  1.6 km/h 4 mph /  6.4 km/h 93 % 0 in /  0.0 mm
19:42 43.3 °F /  6.3 °C 41.5 °F /  5.3 °C 30 in /  1016.1 hPa SSW 2 mph /  3.2 km/h 4 mph /  6.4 km/h 93 % 0 in /  0.0 mm
19:52 43.2 °F /  6.2 °C 41.4 °F /  5.2 °C 30 in /  1016.1 hPa SW 2 mph /  3.2 km/h 4 mph /  6.4 km/h 93 % 0 in /  0.0 mm
19:57 43.2 °F /  6.2 °C 41.4 °F /  5.2 °C 30 in /  1016.1 hPa SSW 2 mph /  3.2 km/h 6 mph /  9.7 km/h 93 % 0 in /  0.0 mm
20:02 43 °F /  6.1 °C 41.2 °F /  5.1 °C 30 in /  1016.1 hPa SW 3 mph /  4.8 km/h 6 mph /  9.7 km/h 93 % 0 in /  0.0 mm
20:07 43 °F /  6.1 °C 41.2 °F /  5.1 °C 30 in /  1016.5 hPa SW 3 mph /  4.8 km/h 6 mph /  9.7 km/h 93 % 0 in /  0.0 mm
20:12 43 °F /  6.1 °C 41.2 °F /  5.1 °C 30 in /  1016.5 hPa Calm   6 mph /  9.7 km/h 93 % 0 in /  0.0 mm
20:17 42.8 °F /  6.0 °C 41 °F /  5.0 °C 30 in /  1016.5 hPa SSW 2 mph /  3.2 km/h 5 mph /  8.0 km/h 93 % 0 in /  0.0 mm
20:22 42.8 °F /  6.0 °C 41.2 °F /  5.1 °C 30 in /  1016.5 hPa WSW 4 mph /  6.4 km/h 5 mph /  8.0 km/h 94 % 0 in /  0.0 mm
20:32 42.6 °F /  5.9 °C 41 °F /  5.0 °C 30 in /  1016.5 hPa SW 4 mph /  6.4 km/h 7 mph /  11.3 km/h 94 % 0 in /  0.0 mm
20:37 42.6 °F /  5.9 °C 41 °F /  5.0 °C 30 in /  1016.5 hPa SW 3 mph /  4.8 km/h 6 mph /  9.7 km/h 94 % 0 in /  0.0 mm
20:42 42.4 °F /  5.8 °C 40.8 °F /  4.9 °C 30 in /  1016.5 hPa SW 5 mph /  8.0 km/h 6 mph /  9.7 km/h 94 % 0 in /  0.0 mm
20:52 42.4 °F /  5.8 °C 40.8 °F /  4.9 °C 30 in /  1016.5 hPa SSW 1 mph /  1.6 km/h 6 mph /  9.7 km/h 94 % 0 in /  0.0 mm
20:57 42.3 °F /  5.7 °C 40.6 °F /  4.8 °C 30 in /  1016.5 hPa SW 2 mph /  3.2 km/h 7 mph /  11.3 km/h 94 % 0 in /  0.0 mm
21:02 42.3 °F /  5.7 °C 40.6 °F /  4.8 °C 30 in /  1016.5 hPa SW 2 mph /  3.2 km/h 7 mph /  11.3 km/h 94 % 0 in /  0.0 mm
21:07 42.3 °F /  5.7 °C 40.6 °F /  4.8 °C 30 in /  1016.5 hPa WSW 4 mph /  6.4 km/h 6 mph /  9.7 km/h 94 % 0 in /  0.0 mm
21:12 42.1 °F /  5.6 °C 40.5 °F /  4.7 °C 30 in /  1016.5 hPa SW 2 mph /  3.2 km/h 6 mph /  9.7 km/h 94 % 0 in /  0.0 mm
21:17 41.9 °F /  5.5 °C 40.3 °F /  4.6 °C 30 in /  1016.5 hPa SW 1 mph /  1.6 km/h 8 mph /  12.9 km/h 94 % 0 in /  0.0 mm
21:22 41.7 °F /  5.4 °C 40.1 °F /  4.5 °C 30 in /  1016.1 hPa SW 5 mph /  8.0 km/h 8 mph /  12.9 km/h 94 % 0 in /  0.0 mm
21:32 41.5 °F /  5.3 °C 39.7 °F /  4.3 °C 30 in /  1016.1 hPa WSW 4 mph /  6.4 km/h 9 mph /  14.5 km/h 93 % 0 in /  0.0 mm
21:42 41.4 °F /  5.2 °C 39.7 °F /  4.3 °C 30 in /  1016.1 hPa SW 2 mph /  3.2 km/h 9 mph /  14.5 km/h 94 % 0 in /  0.0 mm
21:52 41.2 °F /  5.1 °C 39.4 °F /  4.1 °C 30 in /  1016.1 hPa SW 3 mph /  4.8 km/h 6 mph /  9.7 km/h 93 % 0 in /  0.0 mm
21:57 40.8 °F /  4.9 °C 39 °F /  3.9 °C 30 in /  1016.1 hPa SSW 2 mph /  3.2 km/h 7 mph /  11.3 km/h 93 % 0 in /  0.0 mm
22:02 40.6 °F /  4.8 °C 39 °F /  3.9 °C 30 in /  1016.1 hPa SW 4 mph /  6.4 km/h 7 mph /  11.3 km/h 94 % 0 in /  0.0 mm
22:12 40.6 °F /  4.8 °C 39 °F /  3.9 °C 30 in /  1016.1 hPa SSW 3 mph /  4.8 km/h 5 mph /  8.0 km/h 94 % 0 in /  0.0 mm
22:17 40.5 °F /  4.7 °C 38.8 °F /  3.8 °C 30 in /  1016.1 hPa SW 3 mph /  4.8 km/h 7 mph /  11.3 km/h 94 % 0 in /  0.0 mm
22:22 40.3 °F /  4.6 °C 38.7 °F /  3.7 °C 30 in /  1016.5 hPa SW 3 mph /  4.8 km/h 7 mph /  11.3 km/h 94 % 0 in /  0.0 mm
22:32 39.9 °F /  4.4 °C 38.7 °F /  3.7 °C 30 in /  1016.5 hPa SSW 1 mph /  1.6 km/h 5 mph /  8.0 km/h 95 % 0 in /  0.0 mm
22:37 39.9 °F /  4.4 °C 38.7 °F /  3.7 °C 30 in /  1016.5 hPa South 2 mph /  3.2 km/h 4 mph /  6.4 km/h 95 % 0 in /  0.0 mm
22:42 39.7 °F /  4.3 °C 38.5 °F /  3.6 °C 30 in /  1016.5 hPa Calm   4 mph /  6.4 km/h 95 % 0 in /  0.0 mm
22:47 39.7 °F /  4.3 °C 38.5 °F /  3.6 °C 30 in /  1016.5 hPa SSW 1 mph /  1.6 km/h 3 mph /  4.8 km/h 95 % 0 in /  0.0 mm
22:52 39.7 °F /  4.3 °C 38.5 °F /  3.6 °C 30 in /  1016.5 hPa SSW 1 mph /  1.6 km/h 3 mph /  4.8 km/h 95 % 0 in /  0.0 mm
23:02 39.7 °F /  4.3 °C 38.5 °F /  3.6 °C 30 in /  1016.5 hPa Calm   3 mph /  4.8 km/h 95 % 0 in /  0.0 mm
23:07 39.6 °F /  4.2 °C 38.3 °F /  3.5 °C 30 in /  1016.5 hPa Calm   4 mph /  6.4 km/h 95 % 0 in /  0.0 mm
23:12 39.4 °F /  4.1 °C 38.1 °F /  3.4 °C 30 in /  1016.5 hPa SW 1 mph /  1.6 km/h 4 mph /  6.4 km/h 95 % 0 in /  0.0 mm
23:17 39.4 °F /  4.1 °C 38.1 °F /  3.4 °C 30 in /  1016.5 hPa SW 1 mph /  1.6 km/h 2 mph /  3.2 km/h 95 % 0 in /  0.0 mm
23:22 39.4 °F /  4.1 °C 38.1 °F /  3.4 °C 30 in /  1016.5 hPa SSW 2 mph /  3.2 km/h 2 mph /  3.2 km/h 95 % 0 in /  0.0 mm
23:32 39 °F /  3.9 °C 37.8 °F /  3.2 °C 30 in /  1016.1 hPa SSW 1 mph /  1.6 km/h 3 mph /  4.8 km/h 95 % 0 in /  0.0 mm
23:37 39 °F /  3.9 °C 37.8 °F /  3.2 °C 30 in /  1016.5 hPa SSW 2 mph /  3.2 km/h 3 mph /  4.8 km/h 95 % 0 in /  0.0 mm
23:42 39 °F /  3.9 °C 37.8 °F /  3.2 °C 30 in /  1016.1 hPa SSW 1 mph /  1.6 km/h 3 mph /  4.8 km/h 95 % 0 in /  0.0 mm
23:47 38.8 °F /  3.8 °C 37.6 °F /  3.1 °C 30 in /  1016.1 hPa Calm   3 mph /  4.8 km/h 95 % 0 in /  0.0 mm
23:52 38.7 °F /  3.7 °C 37.4 °F /  3.0 °C 30 in /  1016.1 hPa Calm   3 mph /  4.8 km/h 95 % 0 in /  0.0 mm
23:57 38.5 °F /  3.6 °C 37.2 °F /  2.9 °C 30 in /  1016.1 hPa Calm   2 mph /  3.2 km/h 95 % 0 in /  0.0 mm
Meteo18
Compliments of Weather Underground - 4 mb

Script developed by  Jim McMurry - jmcmurry@mwt.net Adapted for the template by  Wim van der Kuil - Leuven-Template.eu

You find our weather info also at:

European Weather Network

Weather Underground

Equipment we use:

Weather-station
Davis Vue

Weather-program
Meteohub

Weather-server
Raspberry PI 2 B+

Provider
1 and 1

Davis Vue

Meteohub

Raspberry PI 2 B+

1 and 1